createdAt,value
2022-12-25T00:00:21.004Z,97.89
2022-12-25T00:02:53.230Z,96.96
2022-12-25T00:05:24.430Z,95.81
2022-12-25T00:07:54.843Z,96.28
2022-12-25T00:10:24.764Z,96.25
2022-12-25T00:12:54.983Z,98.38
2022-12-25T00:15:24.989Z,97.42
2022-12-25T00:17:56.355Z,96.42
2022-12-25T00:20:27.456Z,94.66
2022-12-25T00:22:57.782Z,95.44
2022-12-25T00:25:27.582Z,97.36
2022-12-25T00:27:57.922Z,98.17
2022-12-25T00:30:28.094Z,98.74
2022-12-25T00:32:59.688Z,95.32
2022-12-25T00:35:29.629Z,97.69
2022-12-25T00:37:59.398Z,98.54
2022-12-25T00:40:29.323Z,96.13
2022-12-25T00:42:59.428Z,100.00
2022-12-25T00:45:29.516Z,99.51
2022-12-25T00:48:01.162Z,99.83
2022-12-25T00:50:31.033Z,96.98
2022-12-25T00:53:00.904Z,95.19
2022-12-25T00:55:32.525Z,97.43
2022-12-25T00:58:02.981Z,94.80
2022-12-25T01:00:33.238Z,96.14
2022-12-25T01:03:05.310Z,98.00
2022-12-25T01:05:36.135Z,97.59
2022-12-25T01:08:07.087Z,99.41
2022-12-25T01:10:36.481Z,100.00
2022-12-25T01:13:06.847Z,98.70
2022-12-25T01:15:37.251Z,95.53
2022-12-25T01:18:11.586Z,96.56
2022-12-25T01:20:42.968Z,97.58
2022-12-25T01:23:13.576Z,96.47
2022-12-25T01:25:43.980Z,97.85
2022-12-25T01:28:13.860Z,99.73
2022-12-25T01:30:50.784Z,99.04
2022-12-25T01:33:22.462Z,97.97
2022-12-25T01:35:52.678Z,95.88
2022-12-25T01:38:23.238Z,96.59
2022-12-25T01:40:53.393Z,97.34
2022-12-25T01:43:27.149Z,100.00
2022-12-25T01:45:57.904Z,98.61
2022-12-25T01:48:32.051Z,95.70
2022-12-25T01:51:05.862Z,94.59
2022-12-25T01:53:36.527Z,96.33
2022-12-25T01:56:08.740Z,95.82
2022-12-25T01:58:39.368Z,93.51
2022-12-25T02:01:09.724Z,93.44
2022-12-25T02:03:44.012Z,98.28
2022-12-25T02:06:14.037Z,97.47
2022-12-25T02:08:45.393Z,95.79
2022-12-25T02:11:35.567Z,96.73
2022-12-25T02:14:06.186Z,98.00
2022-12-25T02:16:57.266Z,95.29
2022-12-25T02:19:54.027Z,96.97
2022-12-25T02:22:30.601Z,95.95
2022-12-25T02:25:08.456Z,94.90
2022-12-25T02:28:12.032Z,95.01
2022-12-25T02:30:47.132Z,95.06
2022-12-25T02:33:35.593Z,97.29
2022-12-25T02:36:09.323Z,98.26
2022-12-25T02:39:02.181Z,95.71
2022-12-25T02:41:32.974Z,97.28
2022-12-25T02:44:25.266Z,97.80
2022-12-25T02:47:13.372Z,95.71
2022-12-25T02:50:01.669Z,95.15
2022-12-25T02:52:49.997Z,94.19
2022-12-25T02:55:40.207Z,96.24
2022-12-25T02:58:31.909Z,98.27
2022-12-25T03:01:23.391Z,98.33
2022-12-25T03:04:13.263Z,97.14
2022-12-25T03:06:47.371Z,96.34
2022-12-25T03:09:39.017Z,94.42
2022-12-25T03:12:15.214Z,95.26
2022-12-25T03:15:03.504Z,94.31
2022-12-25T03:17:35.944Z,96.67
2022-12-25T03:20:24.624Z,96.85
2022-12-25T03:23:09.629Z,95.30
2022-12-25T03:25:57.377Z,96.89
2022-12-25T03:28:29.311Z,96.51
2022-12-25T03:31:11.703Z,96.62
2022-12-25T03:34:27.855Z,97.91
2022-12-25T03:37:29.443Z,97.39
2022-12-25T03:40:22.562Z,95.84
2022-12-25T03:43:13.884Z,93.87
2022-12-25T03:46:07.221Z,93.14
2022-12-25T03:48:56.334Z,96.29
2022-12-25T03:51:49.676Z,96.61
2022-12-25T03:54:40.411Z,96.75
2022-12-25T03:57:28.061Z,93.22
2022-12-25T04:00:15.954Z,94.96
2022-12-25T04:03:03.343Z,95.57
2022-12-25T04:06:06.045Z,95.17
2022-12-25T04:08:54.275Z,91.79
2022-12-25T04:11:41.467Z,93.09
2022-12-25T04:14:28.213Z,96.30
2022-12-25T04:17:15.634Z,93.16
2022-12-25T04:20:02.672Z,93.86
2022-12-25T04:22:49.165Z,93.42
2022-12-25T04:25:38.405Z,92.90
2022-12-25T04:28:25.711Z,94.46
2022-12-25T04:31:13.636Z,94.02
2022-12-25T04:34:01.027Z,94.43
2022-12-25T04:36:31.046Z,94.06
2022-12-25T04:39:01.102Z,94.09
2022-12-25T04:41:33.844Z,93.44
2022-12-25T04:44:04.230Z,93.81
2022-12-25T04:46:34.042Z,92.47
2022-12-25T04:49:03.811Z,93.07
2022-12-25T04:51:34.015Z,93.43
2022-12-25T04:54:03.720Z,92.71
2022-12-25T04:56:41.701Z,94.11
2022-12-25T04:59:16.081Z,95.22
2022-12-25T05:01:45.940Z,93.50
2022-12-25T05:04:15.780Z,94.05
2022-12-25T05:06:46.165Z,90.57
2022-12-25T05:09:16.651Z,92.52
2022-12-25T05:11:48.373Z,92.91
2022-12-25T05:14:18.826Z,92.14
2022-12-25T05:16:49.357Z,91.91
2022-12-25T05:19:19.520Z,91.80
2022-12-25T05:21:49.868Z,91.66
2022-12-25T05:24:19.390Z,93.38
2022-12-25T05:26:50.902Z,93.09
2022-12-25T05:29:20.850Z,92.46
2022-12-25T05:31:51.110Z,92.46
2022-12-25T05:34:22.165Z,90.73
2022-12-25T05:36:52.355Z,92.29
2022-12-25T05:39:23.142Z,90.18
2022-12-25T05:41:54.646Z,91.66
2022-12-25T05:44:25.416Z,90.91
2022-12-25T05:46:55.583Z,91.25
2022-12-25T05:49:26.418Z,88.35
2022-12-25T05:51:58.001Z,89.76
2022-12-25T05:54:28.033Z,89.85
2022-12-25T05:56:59.199Z,90.18
2022-12-25T05:59:32.578Z,89.88
2022-12-25T06:02:03.306Z,88.84
2022-12-25T06:04:33.729Z,89.17
2022-12-25T06:07:04.676Z,90.67
2022-12-25T06:09:35.560Z,89.03
2022-12-25T06:12:06.969Z,87.60
2022-12-25T06:14:37.596Z,88.25
2022-12-25T06:17:07.630Z,88.28
2022-12-25T06:19:38.081Z,88.50
2022-12-25T06:22:08.004Z,87.15
2022-12-25T06:24:39.155Z,90.64
2022-12-25T06:27:13.446Z,91.19
2022-12-25T06:29:43.900Z,89.19
2022-12-25T06:32:14.313Z,87.65
2022-12-25T06:34:44.905Z,87.93
2022-12-25T06:37:15.422Z,87.80
2022-12-25T06:39:45.440Z,89.43
2022-12-25T06:42:16.354Z,89.52
2022-12-25T06:44:46.236Z,90.05
2022-12-25T06:47:16.309Z,88.39
2022-12-25T06:49:47.009Z,88.92
2022-12-25T06:52:17.883Z,89.09
2022-12-25T06:54:49.581Z,90.61
2022-12-25T06:57:21.083Z,88.92
2022-12-25T06:59:55.144Z,88.75
2022-12-25T07:02:26.409Z,91.05
2022-12-25T07:04:57.198Z,90.86
2022-12-25T07:07:27.143Z,91.50
2022-12-25T07:09:57.224Z,89.78
2022-12-25T07:12:28.944Z,89.80
2022-12-25T07:14:59.646Z,90.17
2022-12-25T07:17:29.934Z,93.04
2022-12-25T07:20:00.173Z,92.81
2022-12-25T07:22:32.059Z,96.99
2022-12-25T07:25:02.845Z,94.97
2022-12-25T07:27:35.268Z,93.93
2022-12-25T07:30:06.073Z,92.25
2022-12-25T07:32:35.808Z,93.17
2022-12-25T07:35:06.456Z,95.08
2022-12-25T07:37:36.475Z,93.11
2022-12-25T07:40:11.015Z,93.03
2022-12-25T07:42:42.853Z,93.10
2022-12-25T07:45:13.458Z,95.56
2022-12-25T07:47:43.125Z,95.63
2022-12-25T07:50:13.670Z,94.71
2022-12-25T07:52:44.082Z,94.07
2022-12-25T07:55:14.478Z,95.41
2022-12-25T07:57:46.519Z,96.71
2022-12-25T08:00:20.254Z,95.44
2022-12-25T08:02:52.596Z,94.88
2022-12-25T08:05:23.180Z,94.41
2022-12-25T08:07:57.714Z,93.85
2022-12-25T08:10:28.510Z,96.66
2022-12-25T08:13:00.010Z,96.08
2022-12-25T08:15:30.198Z,93.98
2022-12-25T08:18:04.158Z,98.14
2022-12-25T08:20:35.108Z,95.15
2022-12-25T08:23:05.268Z,97.67
2022-12-25T08:25:35.878Z,100.00
2022-12-25T08:28:07.087Z,98.24
2022-12-25T08:30:37.586Z,96.53
2022-12-25T08:33:07.582Z,98.05
2022-12-25T08:35:37.449Z,99.02
2022-12-25T08:38:07.363Z,97.95
2022-12-25T08:40:37.430Z,100.00
2022-12-25T08:43:09.619Z,97.60
2022-12-25T08:45:39.543Z,100.00
2022-12-25T08:48:09.424Z,100.00
2022-12-25T08:50:40.225Z,96.05
2022-12-25T08:53:10.356Z,96.58
2022-12-25T08:55:40.960Z,97.16
2022-12-25T08:58:14.834Z,98.73
2022-12-25T09:00:44.437Z,99.90
2022-12-25T09:03:14.366Z,98.25
2022-12-25T09:05:45.095Z,100.00
2022-12-25T09:08:15.146Z,97.31
2022-12-25T09:10:45.633Z,97.94
2022-12-25T09:13:18.038Z,95.56
2022-12-25T09:15:49.097Z,96.71
2022-12-25T09:18:19.759Z,96.43
2022-12-25T09:20:49.931Z,96.36
2022-12-25T09:23:19.961Z,97.90
2022-12-25T09:25:50.000Z,97.70
2022-12-25T09:28:21.679Z,100.00
2022-12-25T09:30:53.086Z,99.01
2022-12-25T09:33:23.693Z,99.42
2022-12-25T09:35:57.214Z,96.51
2022-12-25T09:38:27.782Z,95.17
2022-12-25T09:41:03.294Z,95.31
2022-12-25T09:43:39.788Z,97.87
2022-12-25T09:46:15.338Z,95.24
2022-12-25T09:48:50.230Z,95.65
2022-12-25T09:51:21.789Z,100.00
2022-12-25T09:53:56.213Z,99.79
2022-12-25T09:56:27.512Z,96.98
2022-12-25T09:58:58.840Z,95.56
2022-12-25T10:01:33.996Z,97.46
2022-12-25T10:04:21.089Z,94.03
2022-12-25T10:07:02.908Z,95.95
2022-12-25T10:09:48.207Z,95.61
2022-12-25T10:12:31.793Z,94.78
2022-12-25T10:15:14.187Z,94.30
2022-12-25T10:17:56.769Z,93.70
2022-12-25T10:20:36.294Z,94.18
2022-12-25T10:23:07.716Z,94.52
2022-12-25T10:25:41.541Z,92.77
2022-12-25T10:28:15.704Z,90.24
2022-12-25T10:30:47.631Z,91.46
2022-12-25T10:33:22.024Z,90.39
2022-12-25T10:35:52.249Z,88.25
2022-12-25T10:38:22.255Z,85.27
2022-12-25T10:41:02.740Z,89.17
2022-12-25T10:43:37.902Z,89.25
2022-12-25T10:46:14.253Z,87.12
2022-12-25T10:48:46.034Z,81.29
2022-12-25T10:51:16.017Z,82.78
2022-12-25T10:53:46.531Z,83.89
2022-12-25T10:56:19.103Z,85.73
2022-12-25T10:58:50.150Z,88.18
2022-12-25T11:01:22.064Z,81.09
2022-12-25T11:03:54.699Z,80.84
2022-12-25T11:06:26.356Z,75.05
2022-12-25T11:08:58.528Z,72.45
2022-12-25T11:11:30.331Z,75.66
2022-12-25T11:14:02.131Z,76.20
2022-12-25T11:16:36.363Z,69.64
2022-12-25T11:19:07.429Z,73.21
2022-12-25T11:21:40.951Z,74.23
2022-12-25T11:24:22.046Z,73.82
2022-12-25T11:26:53.964Z,70.72
2022-12-25T11:29:28.108Z,72.71
2022-12-25T11:32:01.904Z,74.01
2022-12-25T11:34:34.313Z,71.89
2022-12-25T11:37:05.435Z,72.06
2022-12-25T11:39:37.348Z,71.89
2022-12-25T11:42:12.198Z,72.21
2022-12-25T11:44:47.449Z,72.85
2022-12-25T11:47:23.610Z,72.50
2022-12-25T11:50:00.738Z,72.60
2022-12-25T11:52:35.850Z,72.18
2022-12-25T11:55:09.599Z,69.23
2022-12-25T11:57:40.759Z,71.76
2022-12-25T12:00:13.177Z,73.14
2022-12-25T12:02:49.828Z,71.95
2022-12-25T12:05:24.352Z,74.16
2022-12-25T12:07:59.812Z,73.29
2022-12-25T12:10:36.491Z,72.95
2022-12-25T12:13:20.854Z,72.13
2022-12-25T12:15:52.154Z,74.44
2022-12-25T12:18:29.927Z,71.91
2022-12-25T12:21:02.069Z,72.61
2022-12-25T12:23:33.924Z,76.89
2022-12-25T12:26:04.928Z,74.68
2022-12-25T12:28:46.436Z,75.75
2022-12-25T12:31:16.727Z,75.31
2022-12-25T12:33:55.236Z,73.93
2022-12-25T12:36:35.565Z,71.17
2022-12-25T12:39:07.678Z,73.57
2022-12-25T12:41:47.485Z,73.95
2022-12-25T12:44:19.063Z,78.22
2022-12-25T12:46:57.179Z,73.41
2022-12-25T12:49:29.317Z,74.16
2022-12-25T12:52:07.137Z,73.45
2022-12-25T12:54:53.998Z,73.33
2022-12-25T12:57:29.058Z,73.03
2022-12-25T13:00:04.703Z,71.85
2022-12-25T13:03:15.312Z,73.72
2022-12-25T13:05:48.646Z,75.99
2022-12-25T13:08:31.235Z,75.51
2022-12-25T13:11:09.492Z,76.07
2022-12-25T13:13:42.655Z,76.05
2022-12-25T13:16:21.495Z,75.22
2022-12-25T13:18:53.249Z,76.10
2022-12-25T13:21:26.893Z,76.82
2022-12-25T13:24:02.075Z,77.27
2022-12-25T13:26:32.521Z,76.60
2022-12-25T13:29:07.824Z,77.27
2022-12-25T13:31:43.657Z,76.33
2022-12-25T13:34:26.413Z,77.54
2022-12-25T13:36:58.700Z,77.52
2022-12-25T13:39:29.367Z,78.51
2022-12-25T13:42:10.273Z,78.16
2022-12-25T13:44:46.387Z,80.65
2022-12-25T13:47:23.116Z,77.99
2022-12-25T13:49:56.014Z,76.33
2022-12-25T13:52:34.427Z,77.96
2022-12-25T13:55:06.835Z,77.96
2022-12-25T13:57:39.229Z,77.76
2022-12-25T14:00:18.155Z,76.69
2022-12-25T14:02:48.786Z,78.27
2022-12-25T14:05:27.483Z,80.07
2022-12-25T14:08:00.792Z,78.08
2022-12-25T14:10:32.523Z,76.57
2022-12-25T14:13:04.066Z,78.09
2022-12-25T14:15:36.794Z,78.34
2022-12-25T14:18:06.835Z,80.12
2022-12-25T14:20:41.114Z,80.65
2022-12-25T14:23:14.738Z,81.28
2022-12-25T14:25:46.985Z,82.44
2022-12-25T14:28:20.730Z,83.02
2022-12-25T14:30:51.036Z,83.27
2022-12-25T14:33:23.805Z,83.35
2022-12-25T14:35:55.068Z,84.14
2022-12-25T14:38:29.453Z,84.12
2022-12-25T14:41:03.304Z,84.70
2022-12-25T14:43:35.150Z,84.96
2022-12-25T14:46:08.525Z,84.91
2022-12-25T14:48:38.840Z,86.50
2022-12-25T14:51:11.291Z,85.56
2022-12-25T14:53:50.090Z,84.61
2022-12-25T14:56:22.618Z,84.15
2022-12-25T14:58:56.561Z,84.97
2022-12-25T15:01:31.348Z,85.05
2022-12-25T15:04:09.733Z,86.25
2022-12-25T15:06:42.622Z,88.49
2022-12-25T15:09:19.241Z,89.54
2022-12-25T15:11:50.587Z,89.96
2022-12-25T15:14:20.735Z,90.21
2022-12-25T15:16:52.095Z,89.07
2022-12-25T15:19:26.639Z,90.82
2022-12-25T15:22:00.136Z,91.22
2022-12-25T15:24:31.749Z,90.33
2022-12-25T15:27:02.179Z,90.67
2022-12-25T15:30:07.970Z,91.16
2022-12-25T15:32:24.847Z,91.92
2022-12-25T15:34:54.699Z,90.31
2022-12-25T15:37:24.956Z,90.91
2022-12-25T15:39:57.639Z,89.42
2022-12-25T15:42:28.528Z,90.88
2022-12-25T15:44:58.151Z,92.28
2022-12-25T15:47:28.156Z,91.21
2022-12-25T15:49:58.357Z,90.08
2022-12-25T15:52:28.969Z,90.00
2022-12-25T15:55:01.186Z,91.07
2022-12-25T15:57:34.044Z,93.19
2022-12-25T16:00:04.676Z,93.32
2022-12-25T16:02:35.312Z,90.25
2022-12-25T16:05:10.343Z,90.02
2022-12-25T16:07:42.428Z,87.27
2022-12-25T16:10:18.394Z,87.52
2022-12-25T16:12:48.675Z,87.47
2022-12-25T16:15:18.849Z,89.76
2022-12-25T16:17:49.409Z,90.23
2022-12-25T16:20:19.279Z,91.71
2022-12-25T16:22:49.465Z,88.15
2022-12-25T16:25:22.679Z,90.75
2022-12-25T16:27:52.820Z,89.53
2022-12-25T16:30:23.541Z,89.02
2022-12-25T16:32:54.693Z,89.28
2022-12-25T16:35:24.365Z,88.59
2022-12-25T16:37:54.736Z,90.54
2022-12-25T16:40:26.621Z,89.14
2022-12-25T16:42:58.173Z,88.23
2022-12-25T16:45:27.769Z,89.08
2022-12-25T16:47:59.003Z,91.01
2022-12-25T16:50:29.041Z,90.71
2022-12-25T16:52:59.636Z,92.44
2022-12-25T16:55:31.129Z,89.71
2022-12-25T16:58:01.057Z,88.60
2022-12-25T17:00:31.285Z,89.79
2022-12-25T17:03:02.642Z,90.63
2022-12-25T17:05:34.983Z,90.94
2022-12-25T17:08:05.024Z,90.17
2022-12-25T17:10:39.489Z,90.01
2022-12-25T17:13:09.074Z,89.96
2022-12-25T17:15:43.916Z,86.99
2022-12-25T17:18:22.657Z,91.59
2022-12-25T17:20:53.064Z,89.20
2022-12-25T17:23:22.960Z,90.50
2022-12-25T17:25:54.529Z,89.22
2022-12-25T17:28:25.659Z,89.16
2022-12-25T17:30:56.307Z,90.98
2022-12-25T17:33:26.614Z,89.79
2022-12-25T17:36:03.411Z,88.88
2022-12-25T17:38:34.660Z,89.39
2022-12-25T17:41:07.779Z,90.17
2022-12-25T17:43:40.723Z,92.47
2022-12-25T17:46:12.970Z,90.91
2022-12-25T17:48:43.764Z,90.95
2022-12-25T17:51:16.331Z,90.78
2022-12-25T17:53:48.982Z,90.23
2022-12-25T17:56:22.009Z,90.08
2022-12-25T17:58:53.068Z,88.78
2022-12-25T18:01:23.988Z,89.77
2022-12-25T18:03:54.292Z,91.24
2022-12-25T18:06:28.607Z,90.09
2022-12-25T18:09:00.554Z,89.05
2022-12-25T18:11:33.607Z,89.99
2022-12-25T18:14:08.568Z,88.33
2022-12-25T18:16:40.638Z,89.04
2022-12-25T18:19:11.604Z,91.18
2022-12-25T18:21:42.150Z,90.87
2022-12-25T18:24:12.603Z,89.56
2022-12-25T18:26:44.658Z,89.83
2022-12-25T18:29:14.864Z,89.75
2022-12-25T18:31:44.989Z,88.22
2022-12-25T18:34:15.286Z,90.19
2022-12-25T18:36:45.142Z,90.22
2022-12-25T18:39:16.404Z,89.65
2022-12-25T18:42:04.720Z,87.21
2022-12-25T18:44:34.991Z,90.05
2022-12-25T18:47:05.140Z,91.58
2022-12-25T18:49:35.172Z,89.12
2022-12-25T18:52:49.456Z,88.05
2022-12-25T18:54:58.587Z,89.01
2022-12-25T18:57:32.457Z,87.76
2022-12-25T19:00:03.019Z,87.60
2022-12-25T19:02:34.024Z,87.93
2022-12-25T19:05:05.863Z,88.45
2022-12-25T19:07:35.928Z,91.41
2022-12-25T19:10:06.906Z,88.80
2022-12-25T19:12:39.133Z,90.20
2022-12-25T19:15:10.693Z,87.74
2022-12-25T19:17:40.832Z,89.13
2022-12-25T19:20:12.572Z,89.21
2022-12-25T19:22:42.999Z,88.68
2022-12-25T19:25:12.807Z,88.34
2022-12-25T19:27:45.159Z,89.66
2022-12-25T19:30:15.970Z,88.23
2022-12-25T19:32:46.068Z,87.81
2022-12-25T19:35:15.777Z,87.29
2022-12-25T19:37:45.689Z,86.55
2022-12-25T19:40:15.906Z,86.35
2022-12-25T19:42:47.024Z,85.40
2022-12-25T19:45:17.568Z,87.41
2022-12-25T19:47:48.575Z,87.83
2022-12-25T19:50:19.925Z,89.41
2022-12-25T19:52:51.224Z,86.60
2022-12-25T19:55:22.505Z,87.55
2022-12-25T19:57:55.627Z,87.43
2022-12-25T20:00:25.925Z,88.46
2022-12-25T20:02:56.911Z,87.71
2022-12-25T20:05:27.805Z,87.14
2022-12-25T20:07:58.803Z,87.78
2022-12-25T20:10:30.353Z,88.00
2022-12-25T20:13:01.935Z,87.10
2022-12-25T20:15:32.493Z,88.97
2022-12-25T20:18:03.030Z,87.63
2022-12-25T20:20:33.391Z,86.46
2022-12-25T20:23:04.224Z,90.24
2022-12-25T20:25:35.145Z,90.76
2022-12-25T20:28:08.449Z,88.92
2022-12-25T20:30:41.134Z,89.78
2022-12-25T20:33:12.103Z,89.34
2022-12-25T20:35:47.723Z,88.28
2022-12-25T20:38:18.357Z,87.95
2022-12-25T20:41:25.269Z,88.36
2022-12-25T20:43:45.342Z,88.95
2022-12-25T20:46:16.372Z,89.77
2022-12-25T20:48:46.830Z,89.27
2022-12-25T20:51:19.558Z,86.28
2022-12-25T20:53:51.451Z,87.92
2022-12-25T20:56:23.824Z,88.86
2022-12-25T20:58:57.697Z,85.87
2022-12-25T21:01:29.267Z,89.07
2022-12-25T21:04:00.428Z,86.41
2022-12-25T21:06:30.839Z,87.03
2022-12-25T21:09:01.475Z,88.80
2022-12-25T21:11:33.204Z,87.45
2022-12-25T21:14:06.166Z,85.61
2022-12-25T21:16:36.934Z,86.33
2022-12-25T21:19:07.195Z,89.95
2022-12-25T21:21:42.861Z,89.35
2022-12-25T21:24:12.911Z,90.00
2022-12-25T21:26:48.000Z,87.04
2022-12-25T21:29:23.948Z,87.78
2022-12-25T21:32:12.979Z,86.52
2022-12-25T21:34:43.544Z,87.10
2022-12-25T21:37:14.128Z,85.82
2022-12-25T21:39:45.404Z,86.61
2022-12-25T21:42:16.449Z,87.25
2022-12-25T21:44:51.288Z,86.40
2022-12-25T21:47:20.764Z,85.82
2022-12-25T21:50:08.471Z,85.03
2022-12-25T21:52:40.093Z,87.20
2022-12-25T21:55:10.860Z,85.19
2022-12-25T21:57:41.863Z,86.55
2022-12-25T22:00:17.079Z,86.62
2022-12-25T22:02:50.116Z,85.68
2022-12-25T22:05:34.189Z,85.54
2022-12-25T22:08:04.993Z,85.29
2022-12-25T22:10:38.393Z,84.36
2022-12-25T22:13:29.418Z,85.30
2022-12-25T22:16:25.796Z,85.42
2022-12-25T22:19:14.345Z,86.54
2022-12-25T22:21:43.738Z,85.35
2022-12-25T22:24:14.846Z,86.36
2022-12-25T22:26:46.509Z,84.74
2022-12-25T22:29:17.589Z,82.98
2022-12-25T22:31:49.629Z,84.40
2022-12-25T22:34:20.272Z,88.58
2022-12-25T22:36:50.420Z,87.57
2022-12-25T22:39:20.116Z,85.44
2022-12-25T22:41:49.833Z,83.89
2022-12-25T22:44:19.721Z,88.06
2022-12-25T22:46:51.560Z,84.75
2022-12-25T22:49:21.695Z,87.48
2022-12-25T22:51:53.523Z,87.46
2022-12-25T22:54:24.266Z,86.35
2022-12-25T22:56:55.442Z,84.69
2022-12-25T22:59:25.869Z,86.90
2022-12-25T23:01:57.427Z,86.38
2022-12-25T23:04:27.468Z,85.41
2022-12-25T23:06:57.924Z,86.10
2022-12-25T23:09:29.551Z,86.19
2022-12-25T23:12:01.651Z,89.91
2022-12-25T23:14:47.633Z,86.94
2022-12-25T23:17:36.720Z,85.27
2022-12-25T23:20:25.140Z,86.04
2022-12-25T23:23:12.944Z,86.96
2022-12-25T23:26:00.177Z,87.61
2022-12-25T23:28:47.624Z,87.86
2022-12-25T23:31:17.717Z,87.52
2022-12-25T23:33:50.377Z,84.90
2022-12-25T23:36:20.104Z,85.63
2022-12-25T23:38:50.131Z,85.46
2022-12-25T23:41:21.639Z,87.96
2022-12-25T23:43:51.469Z,86.50
2022-12-25T23:46:21.823Z,85.32
2022-12-25T23:48:53.109Z,86.33
2022-12-25T23:51:23.223Z,84.54
2022-12-25T23:53:53.257Z,86.59
2022-12-25T23:56:23.139Z,84.80
2022-12-25T23:58:53.681Z,88.08
